41.0°F
Current conditions from King Hill
Updated every 5 minutes
 
  Tuesday November 25, 2014

Station Historical Data
Daily Summary for December 14, 2011 Units:  Metric    English   Both
« Previous Day
Next Day »
Daily Weekly Monthly Yearly Custom
  High: Low: Average:
Temperature: 3.7 °C 0.2 °C 1.7 °C
Dew Point: 1.1 °C -1.7 °C -0.3 °C
Humidity: 94% 75% 87%
Wind Speed: 12.9km/h 0km/h 3.9km/h
Wind Gust: 24.1km/h - -
Wind- - South
Pressure: 1028.7 hPa 1019.5 hPa -
Precipitation: 0 mm    
Historical Graphs
 
 
Tabular Data for December 14, 2011
Time Temperature Dew Point Pressure Wind Wind Speed Wind Gust Humidity Daily Rainfall
06:34 0.2 °C -0.9 °C 1028 hPa Calm     92% 0 mm
06:39 0.2 °C -0.9 °C 1028 hPa Calm     92% 0 mm
06:44 0.3 °C -0.9 °C 1028 hPa Calm     92% 0 mm
06:49 0.3 °C -0.8 °C 1028 hPa Calm     92% 0 mm
06:54 0.3 °C -0.8 °C 1028 hPa Calm     92% 0 mm
06:59 0.3 °C -0.8 °C 1028 hPa Calm     92% 0 mm
07:04 0.3 °C -0.8 °C 1028 hPa Calm     92% 0 mm
07:09 0.3 °C -0.8 °C 1028 hPa Calm     92% 0 mm
07:14 0.4 °C -0.8 °C 1028 hPa Calm     92% 0 mm
07:19 0.4 °C -0.8 °C 1028 hPa Calm     92% 0 mm
07:24 0.4 °C -0.8 °C 1028 hPa Calm     92% 0 mm
07:30 0.4 °C -0.8 °C 1028 hPa Calm     92% 0 mm
07:34 0.4 °C -0.8 °C 1028 hPa Calm   1.6 km/h 92% 0 mm
07:39 0.4 °C -0.7 °C 1028 hPa Calm   1.6 km/h 92% 0 mm
07:45 0.4 °C -0.7 °C 1028.3 hPa Calm   1.6 km/h 92% 0 mm
07:54 0.5 °C -0.5 °C 1028.3 hPa Calm     93% 0 mm
07:59 0.5 °C -0.5 °C 1028.3 hPa Calm     93% 0 mm
08:04 0.6 °C -0.4 °C 1028.3 hPa Calm   1.6 km/h 93% 0 mm
08:09 0.6 °C -0.4 °C 1028.3 hPa Calm   1.6 km/h 93% 0 mm
08:14 0.6 °C -0.4 °C 1028.3 hPa Calm   3.2 km/h 93% 0 mm
08:19 0.6 °C -0.4 °C 1028.3 hPa Calm   3.2 km/h 93% 0 mm
08:24 0.6 °C -0.4 °C 1028.3 hPa Calm     93% 0 mm
08:30 0.6 °C -0.4 °C 1028.3 hPa Calm     93% 0 mm
08:39 0.7 °C -0.3 °C 1028.3 hPa Calm     93% 0 mm
08:44 0.7 °C -0.3 °C 1028.3 hPa Calm   1.6 km/h 93% 0 mm
08:49 0.7 °C -0.3 °C 1028.3 hPa Calm   1.6 km/h 93% 0 mm
08:54 0.7 °C -0.3 °C 1028.7 hPa South 1.6 km/h 3.2 km/h 93% 0 mm
08:59 0.7 °C -0.3 °C 1028.7 hPa Calm   3.2 km/h 93% 0 mm
09:04 0.7 °C -0.3 °C 1028.7 hPa Calm   3.2 km/h 93% 0 mm
09:09 0.7 °C -0.3 °C 1028.7 hPa Calm   3.2 km/h 93% 0 mm
09:14 0.8 °C -0.2 °C 1028.3 hPa South 1.6 km/h 3.2 km/h 93% 0 mm
09:19 0.8 °C -0.2 °C 1028.3 hPa Calm   3.2 km/h 93% 0 mm
09:24 0.9 °C 0.1 °C 1028.7 hPa Calm   3.2 km/h 94% 0 mm
09:29 0.9 °C 0.1 °C 1028.7 hPa South 1.6 km/h 3.2 km/h 94% 0 mm
09:34 0.9 °C 0.1 °C 1028.7 hPa Calm   3.2 km/h 94% 0 mm
09:45 0.9 °C 0.1 °C 1028.3 hPa Calm   1.6 km/h 94% 0 mm
09:54 1.1 °C 0.3 °C 1028.3 hPa Calm   3.2 km/h 94% 0 mm
09:59 1.3 °C 0.4 °C 1028.7 hPa Calm   1.6 km/h 94% 0 mm
10:04 1.3 °C 0.5 °C 1028.7 hPa Calm   1.6 km/h 94% 0 mm
10:09 1.3 °C 0.5 °C 1028.7 hPa Calm     94% 0 mm
10:14 1.2 °C 0.4 °C 1028.7 hPa Calm     94% 0 mm
10:19 1.2 °C 0.3 °C 1028.7 hPa Calm     94% 0 mm
10:25 1.2 °C 0.4 °C 1028.7 hPa Calm     94% 0 mm
10:34 1.3 °C 0.5 °C 1028.3 hPa Calm     94% 0 mm
10:44 1.5 °C 0.7 °C 1028.3 hPa Calm     94% 0 mm
10:49 1.5 °C 0.7 °C 1028 hPa Calm     94% 0 mm
10:54 1.6 °C 0.8 °C 1028 hPa Calm     94% 0 mm
10:59 1.7 °C 0.8 °C 1028 hPa Calm   1.6 km/h 94% 0 mm
11:04 1.6 °C 0.7 °C 1027.7 hPa Calm   3.2 km/h 94% 0 mm
11:09 1.6 °C 0.7 °C 1027.7 hPa Calm   3.2 km/h 94% 0 mm
11:14 1.6 °C 0.8 °C 1027.7 hPa Calm     94% 0 mm
11:19 1.7 °C 0.8 °C 1027.7 hPa Calm     94% 0 mm
11:24 1.7 °C 0.8 °C 1027.7 hPa Calm   3.2 km/h 94% 0 mm
11:34 1.8 °C 0.9 °C 1027.3 hPa Calm   3.2 km/h 94% 0 mm
11:44 1.9 °C 1 °C 1027.3 hPa Calm   3.2 km/h 94% 0 mm
11:49 1.9 °C 1.1 °C 1027.3 hPa South 1.6 km/h 4.8 km/h 94% 0 mm
11:54 1.9 °C 1 °C 1027.7 hPa South 1.6 km/h 4.8 km/h 94% 0 mm
11:59 1.9 °C 0.9 °C 1027.7 hPa South 3.2 km/h 6.4 km/h 93% 0 mm
12:04 1.9 °C 0.9 °C 1027.7 hPa Calm   6.4 km/h 93% 0 mm
12:09 2.1 °C 1.1 °C 1027.7 hPa Calm   4.8 km/h 93% 0 mm
12:14 2.1 °C 1.1 °C 1027.7 hPa South 1.6 km/h 6.4 km/h 93% 0 mm
12:19 2.2 °C 1 °C 1027.3 hPa Calm   6.4 km/h 92% 0 mm
12:24 2.2 °C 1 °C 1027.3 hPa South 4.8 km/h 6.4 km/h 92% 0 mm
12:29 2.3 °C 0.9 °C 1027.3 hPa Calm   6.4 km/h 91% 0 mm
12:39 2.3 °C 0.9 °C 1027.3 hPa Calm   6.4 km/h 90% 0 mm
12:44 2.4 °C 0.9 °C 1027 hPa Calm   6.4 km/h 90% 0 mm
12:49 2.4 °C 0.8 °C 1027 hPa SSW 4.8 km/h 8 km/h 89% 0 mm
12:54 2.4 °C 0.8 °C 1027.3 hPa Calm   8 km/h 89% 0 mm
12:59 2.4 °C 0.7 °C 1027 hPa SSW 3.2 km/h 6.4 km/h 88% 0 mm
13:04 2.5 °C 0.7 °C 1027 hPa SSW 3.2 km/h 6.4 km/h 88% 0 mm
13:09 2.6 °C 0.6 °C 1027 hPa SSW 1.6 km/h 6.4 km/h 87% 0 mm
13:14 2.6 °C 0.7 °C 1026.6 hPa Calm   4.8 km/h 87% 0 mm
13:19 2.6 °C 0.7 °C 1026.6 hPa SSW 1.6 km/h 4.8 km/h 87% 0 mm
13:24 2.7 °C 0.7 °C 1026.3 hPa Calm   6.4 km/h 87% 0 mm
13:29 2.6 °C 0.5 °C 1026.3 hPa SSW 3.2 km/h 8 km/h 86% 0 mm
13:34 2.6 °C 0.4 °C 1026.3 hPa SSW 4.8 km/h 8 km/h 86% 0 mm
13:39 2.6 °C 0.5 °C 1026.3 hPa SSW 1.6 km/h 8 km/h 86% 0 mm
13:44 2.8 °C 0.7 °C 1026.3 hPa SSW 1.6 km/h 8 km/h 86% 0 mm
13:49 2.7 °C 0.4 °C 1026.3 hPa SW 4.8 km/h 8 km/h 85% 0 mm
13:54 2.7 °C 0.4 °C 1026.6 hPa SW 1.6 km/h 8 km/h 85% 0 mm
13:59 2.8 °C 0.5 °C 1026.6 hPa SW 3.2 km/h 8 km/h 85% 0 mm
14:04 2.8 °C 0.6 °C 1026.3 hPa SW 1.6 km/h 6.4 km/h 85% 0 mm
14:09 2.8 °C 0.6 °C 1026.3 hPa SSE 1.6 km/h 6.4 km/h 85% 0 mm
14:14 2.7 °C 0.4 °C 1026.3 hPa SSE 1.6 km/h 6.4 km/h 85% 0 mm
14:19 2.6 °C 0.3 °C 1026.3 hPa SSE 3.2 km/h 8 km/h 85% 0 mm
14:24 2.5 °C 0.2 °C 1026.3 hPa South 4.8 km/h 9.7 km/h 85% 0 mm
14:30 2.4 °C 0.2 °C 1026.3 hPa Calm   9.7 km/h 85% 0 mm
14:40 2.4 °C 0.3 °C 1026.3 hPa Calm   1.6 km/h 86% 0 mm
14:49 2.4 °C 0.2 °C 1026.3 hPa Calm   6.4 km/h 85% 0 mm
14:54 2.5 °C 0.2 °C 1026 hPa Calm   6.4 km/h 85% 0 mm
14:59 2.4 °C 0.2 °C 1026 hPa Calm   4.8 km/h 85% 0 mm
15:04 2.5 °C 0.2 °C 1025.6 hPa South 3.2 km/h 9.7 km/h 85% 0 mm
15:09 2.5 °C 0.2 °C 1025.6 hPa South 1.6 km/h 9.7 km/h 85% 0 mm
15:14 2.5 °C 0.2 °C 1025.6 hPa South 1.6 km/h 4.8 km/h 85% 0 mm
15:19 2.6 °C 0.3 °C 1025.6 hPa Calm   6.4 km/h 85% 0 mm
15:24 2.5 °C 0.2 °C 1026 hPa Calm   6.4 km/h 85% 0 mm
15:29 2.5 °C 0.2 °C 1026 hPa South 1.6 km/h 6.4 km/h 85% 0 mm
15:34 2.5 °C 0.2 °C 1026 hPa South 1.6 km/h 6.4 km/h 85% 0 mm
15:39 2.4 °C 0 °C 1026 hPa South 1.6 km/h 6.4 km/h 84% 0 mm
15:44 2.4 °C 0 °C 1026 hPa South 1.6 km/h 8 km/h 84% 0 mm
15:49 2.4 °C -0.1 °C 1026 hPa Calm   8 km/h 84% 0 mm
15:54 2.3 °C -0.2 °C 1025.6 hPa Calm   3.2 km/h 84% 0 mm
15:59 2.2 °C -0.2 °C 1025.6 hPa Calm   1.6 km/h 84% 0 mm
16:04 2.2 °C -0.2 °C 1025.6 hPa South 3.2 km/h 8 km/h 84% 0 mm
16:09 2.3 °C -0.2 °C 1025.3 hPa SSE 1.6 km/h 8 km/h 84% 0 mm
16:14 2.3 °C -0.2 °C 1025.3 hPa Calm   6.4 km/h 84% 0 mm
16:19 2.2 °C -0.2 °C 1025.3 hPa Calm   4.8 km/h 84% 0 mm
16:24 2.2 °C -0.3 °C 1025.6 hPa Calm   4.8 km/h 84% 0 mm
16:29 2.2 °C -0.3 °C 1025.6 hPa Calm   3.2 km/h 84% 0 mm
16:40 1.9 °C -0.5 °C 1026 hPa Calm   3.2 km/h 84% 0 mm
16:49 1.6 °C -0.6 °C 1026 hPa Calm   1.6 km/h 85% 0 mm
16:54 1.6 °C -0.7 °C 1026 hPa Calm   1.6 km/h 85% 0 mm
16:59 1.5 °C -0.7 °C 1026 hPa Calm     85% 0 mm
17:04 1.3 °C -0.9 °C 1026 hPa Calm     85% 0 mm
17:09 1.3 °C -0.8 °C 1025.6 hPa Calm     86% 0 mm
17:14 1.1 °C -0.9 °C 1026 hPa Calm     86% 0 mm
17:19 1.1 °C -1 °C 1026 hPa Calm     86% 0 mm
17:25 1.1 °C -0.9 °C 1026 hPa Calm     87% 0 mm
17:34 1 °C -0.9 °C 1025.6 hPa Calm     87% 0 mm
17:39 0.8 °C -1.1 °C 1025.6 hPa Calm   3.2 km/h 87% 0 mm
17:44 0.7 °C -1.2 °C 1025.6 hPa Calm   3.2 km/h 87% 0 mm
17:49 0.6 °C -1.3 °C 1025.3 hPa Calm     87% 0 mm
17:54 0.6 °C -1.3 °C 1024.9 hPa Calm   1.6 km/h 87% 0 mm
17:59 0.6 °C -1.3 °C 1024.9 hPa Calm   3.2 km/h 87% 0 mm
18:04 0.7 °C -1.1 °C 1024.6 hPa SSE 3.2 km/h 8 km/h 88% 0 mm
18:09 0.9 °C -0.9 °C 1024.3 hPa SSE 1.6 km/h 9.7 km/h 88% 0 mm
18:14 1.1 °C -0.9 °C 1024.3 hPa SSE 1.6 km/h 9.7 km/h 87% 0 mm
18:19 1.2 °C -0.8 °C 1024.3 hPa SSE 3.2 km/h 8 km/h 87% 0 mm
18:29 1.2 °C -0.8 °C 1024.3 hPa South 1.6 km/h 6.4 km/h 86% 0 mm
18:35 1.3 °C -0.9 °C 1023.9 hPa South 1.6 km/h 6.4 km/h 85% 0 mm
18:44 1.3 °C -1.1 °C 1023.9 hPa Calm   8 km/h 84% 0 mm
18:49 1.2 °C -1.4 °C 1023.9 hPa Calm   3.2 km/h 83% 0 mm
18:54 0.9 °C -1.7 °C 1023.9 hPa Calm   4.8 km/h 83% 0 mm
18:59 0.7 °C -1.7 °C 1023.9 hPa South 1.6 km/h 6.4 km/h 84% 0 mm
19:04 0.6 °C -1.6 °C 1023.9 hPa South 1.6 km/h 8 km/h 85% 0 mm
19:09 0.7 °C -1.6 °C 1023.9 hPa South 1.6 km/h 8 km/h 85% 0 mm
19:14 0.7 °C -1.6 °C 1023.9 hPa South 1.6 km/h 6.4 km/h 85% 0 mm
19:19 0.6 °C -1.6 °C 1023.6 hPa South 3.2 km/h 8 km/h 85% 0 mm
19:24 0.8 °C -1.4 °C 1023.6 hPa South 3.2 km/h 8 km/h 85% 0 mm
19:29 1.3 °C -0.9 °C 1023.2 hPa SSE 4.8 km/h 9.7 km/h 85% 0 mm
19:34 1.7 °C -0.7 °C 1023.2 hPa South 6.4 km/h 12.9 km/h 84% 0 mm
19:39 1.9 °C -0.8 °C 1023.2 hPa South 4.8 km/h 12.9 km/h 82% 0 mm
19:44 1.9 °C -0.8 °C 1023.2 hPa SSW 3.2 km/h 12.9 km/h 82% 0 mm
19:49 1.9 °C -0.9 °C 1023.2 hPa South 6.4 km/h 11.3 km/h 81% 0 mm
19:54 1.9 °C -0.9 °C 1023.2 hPa SSW 3.2 km/h 11.3 km/h 81% 0 mm
19:59 1.9 °C -1 °C 1023.6 hPa South 3.2 km/h 9.7 km/h 81% 0 mm
20:04 1.8 °C -1.3 °C 1023.2 hPa Calm   9.7 km/h 80% 0 mm
20:09 1.6 °C -1.4 °C 1023.2 hPa Calm   6.4 km/h 80% 0 mm
20:14 1.3 °C -1.6 °C 1023.2 hPa SSW 3.2 km/h 6.4 km/h 81% 0 mm
20:19 1.3 °C -1.6 °C 1023.2 hPa Calm   6.4 km/h 81% 0 mm
20:24 1.2 °C -1.5 °C 1023.2 hPa SSW 3.2 km/h 9.7 km/h 82% 0 mm
20:29 1.2 °C -1.6 °C 1023.2 hPa SSW 1.6 km/h 9.7 km/h 82% 0 mm
20:34 1.3 °C -1.3 °C 1023.2 hPa SSW 4.8 km/h 9.7 km/h 83% 0 mm
20:39 1.3 °C -1.2 °C 1023.2 hPa SW 4.8 km/h 9.7 km/h 83% 0 mm
20:44 1.3 °C -1.2 °C 1023.2 hPa SW 4.8 km/h 9.7 km/h 83% 0 mm
20:49 1.3 °C -1.2 °C 1023.2 hPa SSW 3.2 km/h 9.7 km/h 83% 0 mm
20:54 1.3 °C -1.2 °C 1022.9 hPa SSW 1.6 km/h 9.7 km/h 83% 0 mm
20:59 1.3 °C -1.2 °C 1022.9 hPa Calm   8 km/h 83% 0 mm
21:04 1.3 °C -1.2 °C 1022.9 hPa Calm   8 km/h 83% 0 mm
21:09 1.3 °C -1.2 °C 1022.9 hPa Calm   4.8 km/h 83% 0 mm
21:14 1.3 °C -1.2 °C 1022.6 hPa Calm   4.8 km/h 83% 0 mm
21:19 1.4 °C -1.2 °C 1022.2 hPa SSW 1.6 km/h 6.4 km/h 83% 0 mm
21:24 1.7 °C -1.1 °C 1022.2 hPa SSW 3.2 km/h 8 km/h 82% 0 mm
21:29 1.9 °C -1 °C 1022.2 hPa SSW 4.8 km/h 11.3 km/h 81% 0 mm
21:34 2.1 °C -1 °C 1021.9 hPa South 6.4 km/h 17.7 km/h 80% 0 mm
21:44 2.4 °C -0.9 °C 1021.6 hPa South 6.4 km/h 11.3 km/h 79% 0 mm
21:49 2.6 °C -0.7 °C 1021.6 hPa South 6.4 km/h 16.1 km/h 79% 0 mm
21:54 2.7 °C -0.8 °C 1021.6 hPa SSW 4.8 km/h 16.1 km/h 78% 0 mm
22:04 2.6 °C -0.8 °C 1021.6 hPa SSW 6.4 km/h 12.9 km/h 78% 0 mm
22:09 2.6 °C -0.9 °C 1021.6 hPa South 1.6 km/h 11.3 km/h 78% 0 mm
22:14 2.6 °C -0.9 °C 1021.2 hPa South 6.4 km/h 14.5 km/h 78% 0 mm
22:19 2.7 °C -0.8 °C 1020.9 hPa South 4.8 km/h 14.5 km/h 78% 0 mm
22:24 2.8 °C -0.7 °C 1020.5 hPa South 8 km/h 17.7 km/h 78% 0 mm
22:29 2.9 °C -0.5 °C 1020.5 hPa South 6.4 km/h 19.3 km/h 78% 0 mm
22:34 3.1 °C -0.6 °C 1020.5 hPa South 8 km/h 19.3 km/h 77% 0 mm
22:44 3.2 °C -0.5 °C 1019.9 hPa South 6.4 km/h 22.5 km/h 77% 0 mm
22:49 3.1 °C -0.7 °C 1019.9 hPa South 4.8 km/h 22.5 km/h 76% 0 mm
22:54 3.2 °C -0.5 °C 1019.9 hPa South 8 km/h 20.9 km/h 77% 0 mm
22:59 3.2 °C -0.5 °C 1019.9 hPa SSW 3.2 km/h 20.9 km/h 77% 0 mm
23:04 3.1 °C -0.6 °C 1019.9 hPa SSW 8 km/h 16.1 km/h 77% 0 mm
23:09 3.2 °C -0.5 °C 1020.2 hPa SSW 4.8 km/h 16.1 km/h 77% 0 mm
23:14 3.2 °C -0.5 °C 1020.2 hPa SSW 6.4 km/h 14.5 km/h 77% 0 mm
23:19 3.2 °C -0.4 °C 1020.2 hPa South 3.2 km/h 14.5 km/h 77% 0 mm
23:24 3.3 °C -0.6 °C 1019.9 hPa South 8 km/h 11.3 km/h 76% 0 mm
23:29 3.3 °C -0.5 °C 1019.5 hPa SSW 4.8 km/h 11.3 km/h 76% 0 mm
23:34 3.3 °C -0.5 °C 1019.9 hPa SSW 4.8 km/h 14.5 km/h 76% 0 mm
23:39 3.3 °C -0.5 °C 1019.9 hPa SSW 6.4 km/h 14.5 km/h 76% 0 mm
23:44 3.4 °C -0.4 °C 1019.5 hPa SSW 6.4 km/h 14.5 km/h 76% 0 mm
23:49 3.5 °C -0.3 °C 1019.5 hPa SSW 9.7 km/h 24.1 km/h 76% 0 mm
23:54 3.6 °C -0.4 °C 1019.5 hPa SSW 9.7 km/h 24.1 km/h 75% 0 mm
23:59 3.7 °C -0.3 °C 1019.5 hPa SSW 12.9 km/h 24.1 km/h 75% 0 mm
Westford Weather
Compliments of Weather Underground

 
 
Current Radar Loop:

Copyright © WestfordWeather.net 2007-2014. All rights reserved.